Time;durP1;ratioP1;P1;durP2;ratioP2;P2;SDS_P1;SDS_P2;PMS_P1;PMS_P2;Temp;Humidity;BMP_temperature;BMP_pressure;BME280_temperature;BME280_humidity;BME280_pressure;Samples;Min_cycle;Max_cycle;Signal;HPM_P1;HPM_P2
2022/09/17 00:00:33;;;;;;;;;;;;;;;13.24;65.28;99916.56;4963750;28;19933;-56
2022/09/17 00:02:58;;;;;;;;;;;;;;;13.27;65.25;99920.75;4963596;28;19930;-56
2022/09/17 00:05:24;;;;;;;;;;;;;;;13.26;65.20;99913.78;4967272;28;19924;-58
2022/09/17 00:07:50;;;;;;;;;;;;;;;13.21;65.66;99913.34;4968757;28;19918;-62
2022/09/17 00:10:15;;;;;;;;;;;;;;;13.18;65.56;99919.69;4967499;28;19976;-58
2022/09/17 00:12:41;;;;;;;;;;;;;;;13.16;65.71;99923.44;4964985;28;20106;-57
2022/09/17 00:15:06;;;;;;;;;;;;;;;13.15;65.69;99917.34;4965873;28;19932;-58
2022/09/17 00:17:32;;;;;;;;;;;;;;;13.14;66.02;99926.22;4967493;28;19957;-55
2022/09/17 00:19:57;;;;;;;;;;;;;;;13.14;65.95;99925.38;4963369;28;20012;-55
2022/09/17 00:22:22;;;;;;;;;;;;;;;13.12;65.89;99928.16;4965974;28;19918;-55
2022/09/17 00:24:48;;;;;;;;;;;;;;;13.10;66.18;99925.63;4963759;28;19957;-55
2022/09/17 00:27:13;;;;;;;;;;;;;;;13.14;66.04;99928.00;4962216;28;19926;-58
2022/09/17 00:29:38;;;;;;;;;;;;;;;13.17;65.92;99930.41;4966420;28;19930;-56
2022/09/17 00:32:04;;;;;;;;;;;;;;;13.16;66.01;99934.00;4969435;28;19922;-57
2022/09/17 00:34:29;;;;;;;;;;;;;;;13.17;66.22;99933.88;4965828;28;20017;-58
2022/09/17 00:36:54;;;;;;;;;;;;;;;13.20;66.11;99938.91;4964847;28;20024;-55
2022/09/17 00:39:19;;;;;;;;;;;;;;;13.22;65.88;99944.09;4968838;28;20585;-60
2022/09/17 00:41:45;;;;;;;;;;;;;;;13.18;66.13;99948.75;4966171;28;19965;-56
2022/09/17 00:44:29;;;;;;;;;;;;;;;13.13;66.36;99952.75;4968455;28;19926;-60
2022/09/17 00:46:55;;;;;;;;;;;;;;;13.09;66.43;99955.63;4965337;28;20279;-56
2022/09/17 00:49:27;;;;;;;;;;;;;;;13.02;66.61;99965.03;4966123;28;19938;-56
2022/09/17 00:52:01;;;;;;;;;;;;;;;12.99;66.79;99970.56;4967579;28;19937;-56
2022/09/17 00:54:26;;;;;;;;;;;;;;;13.01;66.88;99962.53;4968984;28;21341;-61
2022/09/17 00:56:52;;;;;;;;;;;;;;;13.06;66.78;99971.75;4969528;28;20396;-58
2022/09/17 00:59:18;;;;;;;;;;;;;;;13.13;66.44;99979.16;4967792;28;20396;-57
2022/09/17 01:01:43;;;;;;;;;;;;;;;13.15;66.43;99986.03;4965627;28;19921;-57
2022/09/17 01:04:16;;;;;;;;;;;;;;;13.16;66.34;99974.47;4966494;28;19983;-54
2022/09/17 01:06:47;;;;;;;;;;;;;;;13.17;66.26;99975.31;4968248;28;20461;-55
2022/09/17 01:09:24;;;;;;;;;;;;;;;13.16;65.94;99982.38;4962475;28;19922;-54
2022/09/17 01:11:57;;;;;;;;;;;;;;;13.13;66.12;99982.66;4964472;28;20470;-55
2022/09/17 01:14:35;;;;;;;;;;;;;;;13.08;66.26;99975.06;4963571;28;20056;-57
2022/09/17 01:17:10;;;;;;;;;;;;;;;13.03;66.30;99982.56;4961653;28;19926;-57
2022/09/17 01:19:41;;;;;;;;;;;;;;;13.06;66.37;99979.66;4964345;28;20024;-58
2022/09/17 01:22:21;;;;;;;;;;;;;;;13.08;66.04;99979.53;4965987;28;19918;-58
2022/09/17 01:24:52;;;;;;;;;;;;;;;13.00;66.36;99981.97;4967051;28;19984;-55
2022/09/17 01:27:36;;;;;;;;;;;;;;;12.90;66.53;99981.84;4964435;28;19922;-55
2022/09/17 01:30:17;;;;;;;;;;;;;;;12.84;66.70;99980.56;4967882;28;19926;-57
2022/09/17 01:32:45;;;;;;;;;;;;;;;12.83;66.81;99980.66;4966331;28;19922;-54
2022/09/17 01:35:18;;;;;;;;;;;;;;;12.84;66.93;99992.91;4966710;28;19925;-54
2022/09/17 01:37:53;;;;;;;;;;;;;;;12.85;66.92;99984.00;4965745;28;19918;-57
2022/09/17 01:40:33;;;;;;;;;;;;;;;12.81;67.03;99988.72;4966948;28;19922;-57
2022/09/17 01:42:58;;;;;;;;;;;;;;;12.78;67.04;99989.75;4963967;28;20457;-58
2022/09/17 01:45:26;;;;;;;;;;;;;;;12.81;67.06;99989.53;4963096;28;19930;-55
2022/09/17 01:47:51;;;;;;;;;;;;;;;12.88;66.97;99978.50;4963168;28;19929;-56
2022/09/17 01:50:21;;;;;;;;;;;;;;;12.95;66.96;99983.16;4962472;28;19940;-56
2022/09/17 01:52:48;;;;;;;;;;;;;;;12.99;66.78;99986.41;4957038;28;19918;-58
2022/09/17 01:55:15;;;;;;;;;;;;;;;13.04;66.41;99984.22;4967802;28;20024;-59
2022/09/17 01:57:44;;;;;;;;;;;;;;;13.08;66.33;99980.34;4967452;28;19922;-57
2022/09/17 02:00:16;;;;;;;;;;;;;;;13.09;66.59;99987.31;4964937;28;20004;-60
2022/09/17 02:02:54;;;;;;;;;;;;;;;13.08;66.67;99990.09;4964417;28;20553;-56
2022/09/17 02:05:31;;;;;;;;;;;;;;;13.08;66.86;99987.47;4963639;28;19929;-55
2022/09/17 02:08:01;;;;;;;;;;;;;;;13.11;66.95;99984.56;4963050;28;19926;-62
2022/09/17 02:10:30;;;;;;;;;;;;;;;13.15;66.88;99988.66;4961337;28;19926;-58
2022/09/17 02:12:59;;;;;;;;;;;;;;;13.18;66.84;99988.38;4957006;28;19956;-59
2022/09/17 02:15:29;;;;;;;;;;;;;;;13.23;66.87;99990.69;4964558;28;19937;-60
2022/09/17 02:17:58;;;;;;;;;;;;;;;13.29;66.88;99984.06;4963405;28;19918;-58
2022/09/17 02:20:25;;;;;;;;;;;;;;;13.31;66.76;99990.88;4964913;28;20680;-59
2022/09/17 02:23:05;;;;;;;;;;;;;;;13.33;66.94;99998.66;4961639;28;19919;-55
2022/09/17 02:25:36;;;;;;;;;;;;;;;13.31;66.82;99993.53;4964998;28;20414;-56
2022/09/17 02:28:04;;;;;;;;;;;;;;;13.32;67.09;99992.56;4968077;28;19928;-56
2022/09/17 02:30:31;;;;;;;;;;;;;;;13.36;67.16;99998.44;4961073;28;19977;-55
2022/09/17 02:32:56;;;;;;;;;;;;;;;13.41;67.30;99991.84;4965729;28;19926;-54
2022/09/17 02:35:22;;;;;;;;;;;;;;;13.47;67.13;99989.66;4963723;28;19936;-55
2022/09/17 02:37:47;;;;;;;;;;;;;;;13.53;67.09;99991.81;4968485;28;20012;-56
2022/09/17 02:40:14;;;;;;;;;;;;;;;13.58;66.94;99986.97;4970081;28;19936;-54
2022/09/17 02:42:43;;;;;;;;;;;;;;;13.64;66.83;99993.53;4968069;28;19976;-58
2022/09/17 02:45:40;;;;;;;;;;;;;;;13.67;66.71;99994.16;4968076;28;19954;-58
2022/09/17 02:48:18;;;;;;;;;;;;;;;13.67;66.67;99994.16;4925913;28;19933;-57
2022/09/17 02:51:02;;;;;;;;;;;;;;;13.68;66.81;99989.69;4966342;28;19926;-61
2022/09/17 02:53:30;;;;;;;;;;;;;;;13.70;66.73;99991.22;4969334;28;19925;-55
2022/09/17 02:56:07;;;;;;;;;;;;;;;13.72;66.74;99999.88;4969907;28;20310;-57
2022/09/17 02:58:40;;;;;;;;;;;;;;;13.76;66.90;99994.34;4968378;28;20413;-54
2022/09/17 03:01:07;;;;;;;;;;;;;;;13.78;66.92;99992.41;4969396;28;20329;-56
2022/09/17 03:03:36;;;;;;;;;;;;;;;13.77;66.98;99988.09;4964448;28;19925;-58
2022/09/17 03:06:01;;;;;;;;;;;;;;;13.78;67.04;99990.59;4965595;28;19949;-55
2022/09/17 03:08:39;;;;;;;;;;;;;;;13.81;67.08;99992.16;4970170;28;19965;-56
2022/09/17 03:11:04;;;;;;;;;;;;;;;13.83;67.13;99984.94;4968536;28;19922;-59
2022/09/17 03:13:30;;;;;;;;;;;;;;;13.85;67.20;99990.91;4967117;28;19977;-58
2022/09/17 03:15:55;;;;;;;;;;;;;;;13.85;67.04;99991.78;4967684;28;19922;-56
2022/09/17 03:18:21;;;;;;;;;;;;;;;13.87;67.08;99994.28;4968003;28;20008;-62
2022/09/17 03:20:46;;;;;;;;;;;;;;;13.89;67.20;99992.34;4963406;28;20001;-55
2022/09/17 03:23:11;;;;;;;;;;;;;;;13.92;67.23;99994.75;4963906;28;20394;-58
2022/09/17 03:25:36;;;;;;;;;;;;;;;13.94;67.25;99994.59;4965557;28;19933;-54
2022/09/17 03:28:02;;;;;;;;;;;;;;;13.95;67.27;99991.84;4965747;28;19922;-54
2022/09/17 03:30:27;;;;;;;;;;;;;;;13.97;67.16;99989.06;4968666;28;20025;-58
2022/09/17 03:32:52;;;;;;;;;;;;;;;13.96;67.24;99996.16;4964534;28;19973;-57
2022/09/17 03:35:18;;;;;;;;;;;;;;;13.96;67.35;99997.97;4966114;28;20389;-58
2022/09/17 03:37:43;;;;;;;;;;;;;;;13.94;67.39;99998.09;4969239;28;19929;-59
2022/09/17 03:40:09;;;;;;;;;;;;;;;13.93;67.69;99992.91;4968453;28;20386;-56
2022/09/17 03:42:34;;;;;;;;;;;;;;;13.91;67.72;99990.41;4966259;28;19930;-59
2022/09/17 03:45:00;;;;;;;;;;;;;;;13.89;67.69;100002.94;4970732;28;20020;-61
2022/09/17 03:47:25;;;;;;;;;;;;;;;13.88;67.61;99993.31;4970613;28;19933;-61
2022/09/17 03:49:51;;;;;;;;;;;;;;;13.89;67.81;99989.69;4966790;28;19930;-56
2022/09/17 03:52:16;;;;;;;;;;;;;;;13.91;67.75;99993.06;4971109;28;20587;-57
2022/09/17 03:54:41;;;;;;;;;;;;;;;13.93;67.93;99993.78;4968304;28;19981;-58
2022/09/17 03:57:07;;;;;;;;;;;;;;;13.95;67.85;99997.13;4970291;28;19941;-55
2022/09/17 03:59:32;;;;;;;;;;;;;;;13.96;67.70;99992.66;4969958;28;19919;-53
2022/09/17 04:01:57;;;;;;;;;;;;;;;13.97;67.88;99995.22;4969802;28;19926;-55
2022/09/17 04:04:23;;;;;;;;;;;;;;;14.00;67.67;100000.22;4966863;28;20393;-58
2022/09/17 04:06:48;;;;;;;;;;;;;;;13.99;67.80;100003.81;4969758;28;19933;-58
2022/09/17 04:09:13;;;;;;;;;;;;;;;13.98;67.82;100010.09;4970829;28;20449;-56
2022/09/17 04:11:39;;;;;;;;;;;;;;;13.98;67.83;100006.59;4967157;28;19930;-60
2022/09/17 04:14:04;;;;;;;;;;;;;;;13.98;67.72;100009.25;4963333;28;19930;-61
2022/09/17 04:16:29;;;;;;;;;;;;;;;13.96;67.76;100014.69;4964550;28;19930;-57
2022/09/17 04:18:54;;;;;;;;;;;;;;;13.92;68.20;100021.19;4966048;28;19930;-59
2022/09/17 04:21:20;;;;;;;;;;;;;;;13.92;68.39;100015.03;4967464;28;19997;-59
2022/09/17 04:23:45;;;;;;;;;;;;;;;13.89;68.36;100026.72;4967253;28;19938;-54
2022/09/17 04:26:10;;;;;;;;;;;;;;;13.89;68.43;100018.78;4968856;28;19926;-55
2022/09/17 04:28:36;;;;;;;;;;;;;;;13.89;68.41;100018.78;4967727;28;19929;-58
2022/09/17 04:31:01;;;;;;;;;;;;;;;13.92;68.48;100026.47;4968344;28;19929;-58
2022/09/17 04:33:27;;;;;;;;;;;;;;;13.91;68.52;100024.78;4967589;28;19926;-56
2022/09/17 04:35:53;;;;;;;;;;;;;;;13.90;68.55;100028.41;4965707;28;19945;-56
2022/09/17 04:38:19;;;;;;;;;;;;;;;13.90;68.67;100022.28;4966855;28;19930;-56
2022/09/17 04:40:47;;;;;;;;;;;;;;;13.88;68.77;100030.34;4963974;28;20015;-57
2022/09/17 04:43:13;;;;;;;;;;;;;;;13.85;68.83;100022.66;4954782;28;19966;-60
2022/09/17 04:45:38;;;;;;;;;;;;;;;13.84;68.90;100021.00;4963604;28;19922;-56
2022/09/17 04:48:03;;;;;;;;;;;;;;;13.85;68.81;100027.94;4965898;28;19988;-62
2022/09/17 04:50:29;;;;;;;;;;;;;;;13.86;69.00;100027.84;4963851;28;19949;-54
2022/09/17 04:52:54;;;;;;;;;;;;;;;13.88;68.85;100025.03;4963248;28;19976;-55
2022/09/17 04:55:20;;;;;;;;;;;;;;;13.88;68.83;100030.34;4964843;28;20389;-57
2022/09/17 04:57:49;;;;;;;;;;;;;;;13.88;68.96;100025.03;4964303;28;20358;-55
2022/09/17 05:00:16;;;;;;;;;;;;;;;13.91;69.06;100026.63;4964257;28;19922;-57
2022/09/17 05:02:43;;;;;;;;;;;;;;;13.94;68.76;100031.63;4965075;28;19929;-55
2022/09/17 05:05:08;;;;;;;;;;;;;;;13.93;69.01;100033.44;4964998;28;20017;-57
2022/09/17 05:07:33;;;;;;;;;;;;;;;13.93;68.91;100037.88;4964756;28;20016;-58
2022/09/17 05:09:58;;;;;;;;;;;;;;;13.93;68.82;100038.75;4967143;28;19926;-56
2022/09/17 05:12:24;;;;;;;;;;;;;;;13.94;68.83;100044.84;4964765;28;20020;-58
2022/09/17 05:14:49;;;;;;;;;;;;;;;13.94;68.87;100045.72;4965537;28;19961;-55
2022/09/17 05:17:14;;;;;;;;;;;;;;;13.96;68.95;100045.56;4966048;28;19929;-57
2022/09/17 05:19:40;;;;;;;;;;;;;;;13.97;68.83;100047.25;4966826;28;20892;-58
2022/09/17 05:22:05;;;;;;;;;;;;;;;13.95;68.85;100052.69;4967903;28;19966;-58
2022/09/17 05:24:30;;;;;;;;;;;;;;;13.94;68.81;100048.34;4962524;28;20001;-60
2022/09/17 05:26:55;;;;;;;;;;;;;;;13.94;68.90;100045.72;4968307;28;19922;-58
2022/09/17 05:29:21;;;;;;;;;;;;;;;13.95;68.88;100049.19;4967291;28;19976;-57
2022/09/17 05:31:46;;;;;;;;;;;;;;;13.96;68.92;100043.78;4966691;28;19929;-58
2022/09/17 05:34:11;;;;;;;;;;;;;;;13.96;68.95;100043.78;4968067;28;19965;-55
2022/09/17 05:36:37;;;;;;;;;;;;;;;13.98;68.78;100038.34;4968083;28;19922;-62
2022/09/17 05:39:02;;;;;;;;;;;;;;;13.99;68.77;100047.97;4969618;28;19926;-57
2022/09/17 05:41:27;;;;;;;;;;;;;;;13.98;68.69;100044.50;4964160;28;19933;-58
2022/09/17 05:43:53;;;;;;;;;;;;;;;13.97;68.82;100042.81;4968851;28;19921;-55
2022/09/17 05:46:18;;;;;;;;;;;;;;;13.97;68.78;100050.75;4963040;28;19922;-58
2022/09/17 05:48:44;;;;;;;;;;;;;;;13.96;68.79;100048.22;4965984;28;19926;-62
2022/09/17 05:51:09;;;;;;;;;;;;;;;13.94;68.84;100050.13;4962113;28;19930;-56
2022/09/17 05:53:35;;;;;;;;;;;;;;;13.94;69.01;100050.13;4965562;28;19928;-57
2022/09/17 05:56:00;;;;;;;;;;;;;;;13.93;68.94;100057.25;4965799;28;19925;-62
2022/09/17 05:58:26;;;;;;;;;;;;;;;13.94;68.95;100056.28;4967741;28;19918;-62
2022/09/17 06:00:51;;;;;;;;;;;;;;;13.96;69.04;100059.66;4965936;28;19961;-54
2022/09/17 06:03:18;;;;;;;;;;;;;;;13.95;68.88;100060.59;4964560;28;19919;-55
2022/09/17 06:05:51;;;;;;;;;;;;;;;13.98;68.98;100063.00;4964972;28;19961;-55
2022/09/17 06:08:16;;;;;;;;;;;;;;;13.99;69.01;100077.88;4965479;28;19961;-58
2022/09/17 06:10:42;;;;;;;;;;;;;;;14.00;68.86;100063.69;4964569;28;20028;-57
2022/09/17 06:13:07;;;;;;;;;;;;;;;14.03;68.76;100071.38;4967133;28;20001;-54
2022/09/17 06:15:32;;;;;;;;;;;;;;;14.05;68.91;100076.56;4970086;28;19926;-56
2022/09/17 06:17:58;;;;;;;;;;;;;;;14.08;69.23;100084.22;4968988;28;19930;-54
2022/09/17 06:20:23;;;;;;;;;;;;;;;14.09;69.06;100079.78;4967851;28;19930;-60
2022/09/17 06:22:48;;;;;;;;;;;;;;;14.10;69.10;100070.88;4968599;28;20012;-61
2022/09/17 06:25:14;;;;;;;;;;;;;;;14.12;68.98;100084.81;4963115;28;20020;-57
2022/09/17 06:27:39;;;;;;;;;;;;;;;14.14;68.94;100080.25;4969776;28;20313;-57
2022/09/17 06:30:05;;;;;;;;;;;;;;;14.18;68.89;100089.59;4965453;28;19929;-57
2022/09/17 06:32:31;;;;;;;;;;;;;;;14.19;68.75;100083.31;4969166;28;19925;-59
2022/09/17 06:34:56;;;;;;;;;;;;;;;14.22;68.67;100098.94;4965518;28;19933;-54
2022/09/17 06:37:28;;;;;;;;;;;;;;;14.21;68.79;100093.81;4969250;28;20028;-57
2022/09/17 06:39:54;;;;;;;;;;;;;;;14.22;68.69;100093.66;4969529;28;19922;-55
2022/09/17 06:42:19;;;;;;;;;;;;;;;14.25;68.79;100096.06;4968122;28;20480;-56
2022/09/17 06:44:44;;;;;;;;;;;;;;;14.27;68.78;100103.84;4972592;28;20065;-56
2022/09/17 06:47:10;;;;;;;;;;;;;;;14.25;68.77;100101.34;4968261;28;19941;-57
2022/09/17 06:49:35;;;;;;;;;;;;;;;14.25;68.79;100098.69;4966268;28;19948;-57
2022/09/17 06:52:01;;;;;;;;;;;;;;;14.25;68.75;100096.06;4962685;28;20314;-58
2022/09/17 06:54:26;;;;;;;;;;;;;;;14.28;68.70;100093.16;4956207;28;19961;-53
2022/09/17 06:56:51;;;;;;;;;;;;;;;14.32;68.99;100096.38;4963817;28;19941;-60
2022/09/17 06:59:17;;;;;;;;;;;;;;;14.36;68.72;100102.25;4970486;28;20021;-61
2022/09/17 07:01:43;;;;;;;;;;;;;;;14.39;68.70;100107.28;4968522;28;19926;-56
2022/09/17 07:04:08;;;;;;;;;;;;;;;14.43;68.46;100095.50;4971544;28;19918;-59
2022/09/17 07:06:33;;;;;;;;;;;;;;;14.41;68.57;100105.34;4967919;28;19926;-55
2022/09/17 07:08:59;;;;;;;;;;;;;;;14.44;68.58;100102.47;4970785;28;19976;-57
2022/09/17 07:11:24;;;;;;;;;;;;;;;14.45;68.47;100106.75;4965515;28;19930;-58
2022/09/17 07:13:49;;;;;;;;;;;;;;;14.45;68.47;100104.09;4961256;28;20016;-55
2022/09/17 07:16:14;;;;;;;;;;;;;;;14.47;68.42;100115.41;4960029;28;20353;-58
2022/09/17 07:18:40;;;;;;;;;;;;;;;14.44;68.15;100115.69;4961277;28;19930;-55
2022/09/17 07:21:05;;;;;;;;;;;;;;;14.41;68.10;100110.66;4967800;28;19937;-55
2022/09/17 07:23:32;;;;;;;;;;;;;;;14.38;68.26;100117.03;4962975;28;20024;-61
2022/09/17 07:25:59;;;;;;;;;;;;;;;14.38;68.28;100111.72;4959388;28;20678;-56
2022/09/17 07:28:25;;;;;;;;;;;;;;;14.40;68.28;100111.63;4961548;28;20413;-56
2022/09/17 07:30:51;;;;;;;;;;;;;;;14.43;68.24;100111.38;4963174;28;19926;-59
2022/09/17 07:33:18;;;;;;;;;;;;;;;14.47;68.03;100112.75;4958690;28;20405;-56
2022/09/17 07:35:50;;;;;;;;;;;;;;;14.52;67.94;100113.22;4960444;28;20402;-58
2022/09/17 07:38:16;;;;;;;;;;;;;;;14.57;67.79;100115.47;4962662;28;19929;-58
2022/09/17 07:40:41;;;;;;;;;;;;;;;14.60;67.52;100121.34;4965473;28;19922;-60
2022/09/17 07:43:07;;;;;;;;;;;;;;;14.62;67.37;100111.47;4968666;28;19969;-59
2022/09/17 07:45:33;;;;;;;;;;;;;;;14.66;67.27;100108.56;4964643;28;19930;-57
2022/09/17 07:47:58;;;;;;;;;;;;;;;14.68;67.09;100111.97;4961056;28;19984;-57
2022/09/17 07:50:24;;;;;;;;;;;;;;;14.69;66.90;100114.47;4967044;28;19984;-57
2022/09/17 07:52:49;;;;;;;;;;;;;;;14.69;66.90;100111.00;4966912;28;19953;-58
2022/09/17 07:55:15;;;;;;;;;;;;;;;14.69;66.94;100119.75;4959889;28;19922;-56
2022/09/17 07:57:40;;;;;;;;;;;;;;;14.70;66.89;100105.56;4960041;28;20287;-57
2022/09/17 08:00:06;;;;;;;;;;;;;;;14.73;66.80;100104.47;4961994;28;19984;-56
2022/09/17 08:02:31;;;;;;;;;;;;;;;14.74;66.70;100101.69;4959493;28;19965;-57
2022/09/17 08:04:57;;;;;;;;;;;;;;;14.75;66.45;100110.44;4958428;28;20016;-56
2022/09/17 08:07:22;;;;;;;;;;;;;;;14.74;66.45;100111.44;4962896;28;20392;-55
2022/09/17 08:09:48;;;;;;;;;;;;;;;14.73;66.46;100107.94;4956046;28;19926;-56
2022/09/17 08:12:13;;;;;;;;;;;;;;;14.75;66.39;100113.09;4948978;28;19932;-59
2022/09/17 08:14:39;;;;;;;;;;;;;;;14.76;66.52;100104.19;4962504;28;19925;-57
2022/09/17 08:17:07;;;;;;;;;;;;;;;14.79;66.48;100109.22;4959226;28;21409;-57
2022/09/17 08:19:32;;;;;;;;;;;;;;;14.82;66.34;100106.31;4955341;28;19933;-59
2022/09/17 08:21:58;;;;;;;;;;;;;;;14.81;66.37;100104.63;4964590;28;19922;-61
2022/09/17 08:24:23;;;;;;;;;;;;;;;14.82;66.35;100116.09;4962995;28;19936;-59
2022/09/17 08:26:48;;;;;;;;;;;;;;;14.82;66.09;100114.25;4954512;28;19934;-56
2022/09/17 08:29:14;;;;;;;;;;;;;;;14.82;66.02;100103.66;4960503;28;19936;-54
2022/09/17 08:31:39;;;;;;;;;;;;;;;14.81;65.94;100091.41;4959714;28;19934;-58
2022/09/17 08:34:08;;;;;;;;;;;;;;;14.84;66.00;100101.72;4962901;28;20437;-56
2022/09/17 08:36:34;;;;;;;;;;;;;;;14.90;65.91;100101.19;4961508;28;19933;-56
2022/09/17 08:38:59;;;;;;;;;;;;;;;14.97;65.90;100098.00;4962742;28;19926;-57
2022/09/17 08:41:32;;;;;;;;;;;;;;;15.06;65.81;100097.19;4962546;28;20226;-59
2022/09/17 08:44:00;;;;;;;;;;;;;;;15.13;65.52;100101.00;4960234;28;19961;-59
2022/09/17 08:46:27;;;;;;;;;;;;;;;15.19;65.15;100089.88;4954406;28;19922;-55
2022/09/17 08:49:00;;;;;;;;;;;;;;;15.25;65.10;100088.50;4962015;28;19936;-59
2022/09/17 08:51:29;;;;;;;;;;;;;;;15.33;64.85;100101.91;4959019;28;19930;-53
2022/09/17 08:53:57;;;;;;;;;;;;;;;15.38;64.56;100105.00;4954680;28;20061;-59
2022/09/17 08:56:24;;;;;;;;;;;;;;;15.41;64.45;100103.88;4963555;28;19932;-57
2022/09/17 08:58:55;;;;;;;;;;;;;;;15.43;64.29;100101.94;4949747;28;19926;-53
2022/09/17 09:01:33;;;;;;;;;;;;;;;15.43;64.07;100101.94;4950344;28;20966;-59
2022/09/17 09:04:08;;;;;;;;;;;;;;;15.43;63.94;100103.75;4959974;28;19925;-59
2022/09/17 09:06:36;;;;;;;;;;;;;;;15.44;63.65;100093.00;4961632;28;20235;-56
2022/09/17 09:09:04;;;;;;;;;;;;;;;15.44;63.63;100106.25;4957706;28;19926;-59
2022/09/17 09:11:30;;;;;;;;;;;;;;;15.41;63.82;100095.94;4960438;28;19941;-58
2022/09/17 09:14:19;;;;;;;;;;;;;;;15.41;63.92;100108.34;4960099;28;19930;-57
2022/09/17 09:16:44;;;;;;;;;;;;;;;15.39;64.11;100111.97;4954367;28;20031;-57
2022/09/17 09:19:15;;;;;;;;;;;;;;;15.34;64.24;100113.38;4960171;28;19964;-61
2022/09/17 09:21:51;;;;;;;;;;;;;;;15.33;64.40;100114.34;4959898;28;20886;-56
2022/09/17 09:24:25;;;;;;;;;;;;;;;15.34;64.32;100123.97;4959659;28;20398;-58
2022/09/17 09:27:14;;;;;;;;;;;;;;;15.31;64.26;100134.84;4953896;28;19930;-55
2022/09/17 09:29:52;;;;;;;;;;;;;;;15.28;63.91;100135.09;4954449;28;19926;-57
2022/09/17 09:32:24;;;;;;;;;;;;;;;15.23;63.88;100154.06;4960991;28;19922;-61
2022/09/17 09:34:49;;;;;;;;;;;;;;;15.13;63.73;100163.75;4959492;28;19922;-56
2022/09/17 09:37:17;;;;;;;;;;;;;;;15.04;63.90;100141.56;4961685;28;20317;-57
2022/09/17 09:39:44;;;;;;;;;;;;;;;14.98;64.04;100140.25;4959693;28;20353;-57
2022/09/17 09:42:13;;;;;;;;;;;;;;;14.93;64.17;100138.00;4954247;28;19926;-58
2022/09/17 09:44:39;;;;;;;;;;;;;;;14.90;64.03;100143.56;4961580;28;20397;-53
2022/09/17 09:47:07;;;;;;;;;;;;;;;14.92;64.05;100138.97;4959025;28;19929;-55
2022/09/17 09:49:35;;;;;;;;;;;;;;;14.95;63.80;100135.25;4958712;28;20459;-54
2022/09/17 09:52:09;;;;;;;;;;;;;;;15.03;63.65;100145.19;4949871;28;20038;-56
2022/09/17 09:54:47;;;;;;;;;;;;;;;15.08;63.52;100150.91;4959252;28;20036;-55
2022/09/17 09:57:15;;;;;;;;;;;;;;;15.11;63.36;100161.25;4960916;28;19922;-56
2022/09/17 09:59:40;;;;;;;;;;;;;;;15.10;63.30;100148.97;4952026;28;19926;-54
2022/09/17 10:02:06;;;;;;;;;;;;;;;15.11;63.27;100157.78;4959102;28;19950;-58
2022/09/17 10:04:31;;;;;;;;;;;;;;;15.11;63.39;100160.41;4960693;28;19918;-55
2022/09/17 10:07:08;;;;;;;;;;;;;;;15.14;63.40;100163.63;4959928;28;19922;-61
2022/09/17 10:09:37;;;;;;;;;;;;;;;15.17;63.46;100152.78;4960839;28;20406;-58
2022/09/17 10:12:05;;;;;;;;;;;;;;;15.20;63.25;100147.19;4960499;28;19945;-58
2022/09/17 10:14:32;;;;;;;;;;;;;;;15.21;62.99;100156.81;4960515;28;20332;-58
2022/09/17 10:17:11;;;;;;;;;;;;;;;15.20;62.93;100155.13;4961885;28;20389;-55
2022/09/17 10:19:36;;;;;;;;;;;;;;;15.22;62.91;100155.84;4948705;28;19933;-57
2022/09/17 10:22:17;;;;;;;;;;;;;;;15.26;62.76;100161.75;4957139;28;19977;-54
2022/09/17 10:24:43;;;;;;;;;;;;;;;15.28;62.74;100161.59;4957166;28;19926;-60
2022/09/17 10:27:17;;;;;;;;;;;;;;;15.30;62.73;100165.78;4957996;28;19926;-57
2022/09/17 10:30:02;;;;;;;;;;;;;;;15.32;62.57;100161.19;4962241;28;19945;-56
2022/09/17 10:32:28;;;;;;;;;;;;;;;15.33;62.49;100159.41;4957606;28;19926;-58
2022/09/17 10:35:23;;;;;;;;;;;;;;;15.38;62.44;100167.75;4961563;28;19988;-54
2022/09/17 10:37:50;;;;;;;;;;;;;;;15.42;62.34;100155.09;4961244;28;19930;-57
2022/09/17 10:40:18;;;;;;;;;;;;;;;15.44;62.50;100151.34;4959188;28;21430;-53
2022/09/17 10:43:09;;;;;;;;;;;;;;;15.49;62.33;100151.78;4951983;28;20021;-55
2022/09/17 10:45:36;;;;;;;;;;;;;;;15.57;62.09;100142.28;4952988;28;19968;-57
2022/09/17 10:48:01;;;;;;;;;;;;;;;15.62;62.02;100148.84;4961904;28;19929;-53
2022/09/17 10:50:31;;;;;;;;;;;;;;;15.70;61.66;100150.84;4964401;28;20382;-56
2022/09/17 10:52:59;;;;;;;;;;;;;;;15.76;61.49;100155.59;4965045;28;19918;-52
2022/09/17 10:55:32;;;;;;;;;;;;;;;15.81;61.36;100156.00;4963865;28;19926;-54
2022/09/17 10:58:07;;;;;;;;;;;;;;;15.90;61.11;100157.03;4959362;28;19918;-55
2022/09/17 11:00:44;;;;;;;;;;;;;;;16.00;60.73;100141.13;4963718;28;20420;-53
2022/09/17 11:03:41;;;;;;;;;;;;;;;16.05;59.87;100168.09;4964282;28;20417;-54
2022/09/17 11:06:12;;;;;;;;;;;;;;;16.04;59.70;100155.81;4964432;28;19930;-55
2022/09/17 11:08:49;;;;;;;;;;;;;;;16.02;59.22;100155.09;4960477;28;20000;-53
2022/09/17 11:11:15;;;;;;;;;;;;;;;15.98;59.15;100148.38;4969068;28;20534;-53
2022/09/17 11:13:40;;;;;;;;;;;;;;;15.92;58.99;100165.69;4961583;28;19925;-53
2022/09/17 11:16:28;;;;;;;;;;;;;;;15.92;59.19;100160.41;4955151;28;19926;-56
2022/09/17 11:19:00;;;;;;;;;;;;;;;15.97;58.99;100144.06;4958758;28;20472;-53
2022/09/17 11:21:26;;;;;;;;;;;;;;;15.99;58.93;100161.53;4963760;28;19976;-53
2022/09/17 11:24:08;;;;;;;;;;;;;;;16.04;58.83;100158.47;4958485;28;20365;-57
2022/09/17 11:26:44;;;;;;;;;;;;;;;16.12;59.08;100163.91;4957596;28;19930;-53
2022/09/17 11:29:28;;;;;;;;;;;;;;;16.20;58.54;100162.38;4960412;28;20378;-54
2022/09/17 11:32:09;;;;;;;;;;;;;;;16.20;58.35;100157.06;4961269;28;20359;-53
2022/09/17 11:34:37;;;;;;;;;;;;;;;16.21;58.14;100148.97;4965341;28;19922;-52
2022/09/17 11:37:29;;;;;;;;;;;;;;;16.27;58.35;100166.13;4969278;28;19918;-57
2022/09/17 11:39:58;;;;;;;;;;;;;;;16.32;58.31;100163.09;4955408;28;19985;-54
2022/09/17 11:42:38;;;;;;;;;;;;;;;16.36;58.07;100167.13;4957762;28;20508;-56
2022/09/17 11:45:10;;;;;;;;;;;;;;;16.36;57.51;100167.97;4959741;28;20547;-57
2022/09/17 11:47:42;;;;;;;;;;;;;;;16.35;57.39;100187.53;4957860;28;19924;-56
2022/09/17 11:50:10;;;;;;;;;;;;;;;16.31;57.08;100180.81;4958086;28;19974;-55
2022/09/17 11:52:38;;;;;;;;;;;;;;;16.26;57.06;100167.97;4961324;28;20458;-57
2022/09/17 11:55:24;;;;;;;;;;;;;;;16.28;57.08;100173.97;4963224;28;19922;-56
2022/09/17 11:57:53;;;;;;;;;;;;;;;16.33;57.11;100175.38;4967053;28;19926;-56
2022/09/17 12:00:19;;;;;;;;;;;;;;;16.34;57.13;100172.56;4958703;28;19922;-54
2022/09/17 12:03:05;;;;;;;;;;;;;;;16.35;57.04;100166.28;4963033;28;19945;-60
2022/09/17 12:05:34;;;;;;;;;;;;;;;16.35;57.20;100166.28;4964532;28;19925;-55
2022/09/17 12:08:09;;;;;;;;;;;;;;;16.34;57.31;100156.66;4958395;28;19918;-58
2022/09/17 12:10:37;;;;;;;;;;;;;;;16.35;57.29;100160.97;4963327;28;19926;-60
2022/09/17 12:13:02;;;;;;;;;;;;;;;16.37;57.23;100174.97;4966191;28;19929;-57
2022/09/17 12:15:31;;;;;;;;;;;;;;;16.38;56.94;100158.06;4955612;28;20364;-53
2022/09/17 12:18:19;;;;;;;;;;;;;;;16.38;56.11;100150.09;4957234;28;19918;-54
2022/09/17 12:20:46;;;;;;;;;;;;;;;16.38;56.28;100150.09;4967007;28;20441;-55
2022/09/17 12:23:14;;;;;;;;;;;;;;;16.38;56.53;100155.41;4959159;28;19986;-55
2022/09/17 12:25:51;;;;;;;;;;;;;;;16.39;56.81;100166.84;4961167;28;19930;-54
2022/09/17 12:28:46;;;;;;;;;;;;;;;16.30;56.41;100180.00;4955246;28;19921;-58
2022/09/17 12:31:27;;;;;;;;;;;;;;;16.10;56.77;100191.56;4947670;28;19930;-53
2022/09/17 12:34:13;;;;;;;;;;;;;;;15.83;57.61;100172.63;4961727;28;19939;-58
2022/09/17 12:36:39;;;;;;;;;;;;;;;15.56;58.36;100186.53;4945542;28;19925;-54
2022/09/17 12:39:04;;;;;;;;;;;;;;;15.34;58.95;100176.97;4964714;28;20297;-53
2022/09/17 12:41:37;;;;;;;;;;;;;;;15.18;59.40;100166.84;4962865;28;20382;-58
2022/09/17 12:44:02;;;;;;;;;;;;;;;15.05;59.96;100167.09;4961067;28;19918;-56
2022/09/17 12:46:46;;;;;;;;;;;;;;;15.02;59.92;100167.34;4956599;28;20636;-54
2022/09/17 12:49:14;;;;;;;;;;;;;;;15.00;60.35;100159.50;4959589;28;20008;-57